Time;durP1;ratioP1;P1;durP2;ratioP2;P2;SDS_P1;SDS_P2;PMS_P1;PMS_P2;Temp;Humidity;BMP_temperature;BMP_pressure;BME280_temperature;BME280_humidity;BME280_pressure;Samples;Min_cycle;Max_cycle;Signal;HPM_P1;HPM_P2
2023/06/24 00:00:11;;;;;;;2.67;1.77;;;;;;;31.06;31.62;102491.91;5084135;28;20028;-76
2023/06/24 00:02:37;;;;;;;2.70;2.07;;;;;;;30.72;32.67;102500.53;5055209;28;20032;-76
2023/06/24 00:05:08;;;;;;;3.75;2.40;;;;;;;30.79;32.16;102514.47;5067802;28;20301;-76
2023/06/24 00:07:43;;;;;;;3.72;2.28;;;;;;;30.69;32.72;102516.06;5085461;28;20069;-75
2023/06/24 00:10:09;;;;;;;3.28;1.73;;;;;;;30.86;33.27;102513.06;5064989;28;20042;-75
2023/06/24 00:12:35;;;;;;;3.20;2.25;;;;;;;30.66;33.16;102510.88;5071199;28;20063;-75
2023/06/24 00:15:00;;;;;;;2.65;1.95;;;;;;;30.90;32.77;102513.69;5066148;28;20066;-76
2023/06/24 00:17:28;;;;;;;2.45;1.80;;;;;;;30.74;32.49;102514.78;5060698;28;20028;-76
2023/06/24 00:19:54;;;;;;;2.40;1.90;;;;;;;30.65;32.67;102514.56;5061815;28;20032;-78
2023/06/24 00:22:20;;;;;;;2.63;1.90;;;;;;;30.85;32.79;102514.03;5071826;28;20070;-77
2023/06/24 00:24:45;;;;;;;2.53;1.88;;;;;;;30.72;33.14;102515.84;5091598;28;20047;-77
2023/06/24 00:27:11;;;;;;;3.10;2.00;;;;;;;30.65;33.60;102514.56;5074143;28;20032;-75
2023/06/24 00:29:37;;;;;;;3.33;2.03;;;;;;;30.45;34.02;102516.78;5085058;28;20027;-76
2023/06/24 00:32:03;;;;;;;2.47;2.05;;;;;;;30.31;34.20;102514.13;5060185;28;20059;-77
2023/06/24 00:34:28;;;;;;;2.33;1.67;;;;;;;30.45;33.63;102514.09;5054813;28;20052;-76
2023/06/24 00:36:55;;;;;;;3.60;2.00;;;;;;;30.18;34.22;102517.66;5067007;28;20321;-76
2023/06/24 00:39:20;;;;;;;2.35;1.90;;;;;;;30.23;34.26;102518.22;5072004;28;20123;-76
2023/06/24 00:41:46;;;;;;;3.53;1.88;;;;;;;30.05;34.65;102516.78;5086516;28;20035;-77
2023/06/24 00:44:12;;;;;;;2.63;1.83;;;;;;;30.04;34.44;102520.44;5064748;28;20034;-76
2023/06/24 00:46:39;;;;;;;3.90;2.25;;;;;;;30.07;34.43;102509.44;5066124;28;20031;-76
2023/06/24 00:49:05;;;;;;;4.70;2.00;;;;;;;29.90;34.62;102510.56;5087140;28;20023;-77
2023/06/24 00:51:32;;;;;;;3.45;1.92;;;;;;;30.15;34.24;102511.63;5062473;28;20498;-76
2023/06/24 00:53:58;;;;;;;2.47;1.95;;;;;;;29.98;34.46;102512.75;5054867;28;20089;-76
2023/06/24 00:56:42;;;;;;;3.25;2.28;;;;;;;29.92;34.80;102514.91;5065895;28;20048;-77
2023/06/24 00:59:07;;;;;;;2.90;1.80;;;;;;;29.95;35.23;102514.69;5075587;28;20029;-75
2023/06/24 01:01:37;;;;;;;2.63;1.90;;;;;;;29.90;35.33;102514.13;5074273;28;20028;-76
2023/06/24 01:04:03;;;;;;;2.85;2.13;;;;;;;29.72;36.13;102515.31;5088837;28;20027;-76
2023/06/24 01:06:30;;;;;;;3.30;1.85;;;;;;;30.04;34.63;102509.66;5074465;28;20043;-76
2023/06/24 01:08:57;;;;;;;2.70;2.25;;;;;;;29.97;35.47;102508.34;5054103;28;20025;-77
2023/06/24 01:11:23;;;;;;;3.38;2.30;;;;;;;29.51;36.31;102513.06;5070315;28;20059;-76
2023/06/24 01:13:49;;;;;;;2.63;2.10;;;;;;;29.74;35.55;102502.59;5054546;28;20040;-77
2023/06/24 01:16:32;;;;;;;3.08;1.98;;;;;;;29.43;36.06;102512.69;5068149;28;20028;-77
2023/06/24 01:19:04;;;;;;;4.30;2.00;;;;;;;29.58;35.40;102503.59;5066726;28;20085;-77
2023/06/24 01:21:54;;;;;;;2.85;2.03;;;;;;;29.53;35.80;102500.34;5072279;28;20043;-76
2023/06/24 01:24:47;;;;;;;3.42;2.00;;;;;;;29.35;36.08;102491.63;5066380;28;20020;-76
2023/06/24 01:27:31;;;;;;;2.67;2.05;;;;;;;29.37;35.37;102489.66;5078629;28;20024;-76
2023/06/24 01:30:23;;;;;;;2.55;1.83;;;;;;;29.15;36.34;102489.28;5064656;28;20082;-76
2023/06/24 01:32:56;;;;;;;2.80;2.03;;;;;;;29.10;36.19;102493.16;5053331;28;20025;-76
2023/06/24 01:35:28;;;;;;;5.97;2.10;;;;;;;29.41;35.59;102490.34;5069418;28;20054;-76
2023/06/24 01:37:56;;;;;;;5.32;2.25;;;;;;;29.39;34.15;102486.91;5073677;28;20056;-76
2023/06/24 01:40:44;;;;;;;5.63;2.00;;;;;;;29.21;34.92;102483.50;5078043;28;20032;-76
2023/06/24 01:43:11;;;;;;;3.40;1.85;;;;;;;29.22;35.38;102480.75;5057464;28;20028;-77
2023/06/24 01:45:42;;;;;;;2.45;1.83;;;;;;;29.05;35.72;102479.09;5053296;28;20032;-76
2023/06/24 01:48:13;;;;;;;2.85;1.67;;;;;;;29.32;35.37;102481.06;5053842;28;20090;-76
2023/06/24 01:50:42;;;;;;;6.25;1.98;;;;;;;29.16;35.45;102480.25;5056940;28;20024;-77
2023/06/24 01:53:08;;;;;;;3.30;1.85;;;;;;;29.17;34.65;102472.09;5082587;28;20031;-76
2023/06/24 01:55:37;;;;;;;2.72;1.95;;;;;;;28.86;35.18;102479.38;5069271;28;20044;-76
2023/06/24 01:58:07;;;;;;;2.50;1.90;;;;;;;28.84;36.23;102480.44;5068373;28;20032;-76
2023/06/24 02:00:34;;;;;;;3.45;2.05;;;;;;;28.99;36.06;102478.63;5076824;28;20114;-76
2023/06/24 02:03:01;;;;;;;3.72;2.20;;;;;;;29.03;35.73;102485.53;5070555;28;20559;-75
2023/06/24 02:05:28;;;;;;;2.63;1.88;;;;;;;29.22;35.41;102478.06;5070522;28;20392;-76
2023/06/24 02:07:54;;;;;;;3.30;1.90;;;;;;;28.83;36.30;102479.59;5069164;28;20063;-76
2023/06/24 02:10:21;;;;;;;3.33;2.00;;;;;;;28.93;36.16;102475.38;5078059;28;20123;-76
2023/06/24 02:12:49;;;;;;;2.42;2.10;;;;;;;28.88;36.12;102472.09;5078053;28;20033;-76
2023/06/24 02:15:16;;;;;;;4.05;2.53;;;;;;;28.84;35.97;102473.25;5052474;28;20077;-76
2023/06/24 02:17:42;;;;;;;2.58;1.95;;;;;;;28.93;36.33;102469.09;5059876;28;20463;-75
2023/06/24 02:20:10;;;;;;;3.03;2.20;;;;;;;28.81;36.10;102478.84;5070361;28;20036;-76
2023/06/24 02:22:39;;;;;;;3.47;2.38;;;;;;;28.94;36.20;102473.53;5070002;28;20021;-78
2023/06/24 02:25:06;;;;;;;4.22;2.15;;;;;;;29.05;36.30;102472.88;5051970;28;20029;-75
2023/06/24 02:27:32;;;;;;;2.45;2.13;;;;;;;29.10;35.96;102470.75;5074966;28;20095;-75
2023/06/24 02:29:59;;;;;;;4.38;2.55;;;;;;;29.12;35.61;102471.50;5058691;28;20117;-75
2023/06/24 02:32:25;;;;;;;5.07;2.35;;;;;;;28.82;36.87;102461.69;5055522;28;20070;-76
2023/06/24 02:34:50;;;;;;;10.00;2.80;;;;;;;29.39;35.14;102459.97;5072718;28;20503;-76
2023/06/24 02:37:16;;;;;;;2.78;2.08;;;;;;;29.26;35.75;102460.78;5056380;28;20036;-75
2023/06/24 02:39:44;;;;;;;6.30;2.67;;;;;;;29.06;36.21;102455.75;5056746;28;20388;-75
2023/06/24 02:42:11;;;;;;;3.67;2.20;;;;;;;28.89;36.89;102463.06;5076474;28;20089;-76
2023/06/24 02:44:38;;;;;;;3.58;2.67;;;;;;;28.70;37.25;102467.84;5072996;28;20026;-77
2023/06/24 02:47:07;;;;;;;7.50;2.70;;;;;;;28.80;37.32;102458.25;5055930;28;20109;-75
2023/06/24 02:49:35;;;;;;;6.05;3.00;;;;;;;28.72;37.64;102460.56;5068432;28;20028;-76
2023/06/24 02:52:00;;;;;;;6.22;2.95;;;;;;;29.14;36.35;102456.16;5055916;28;20064;-75
2023/06/24 02:54:26;;;;;;;4.57;2.95;;;;;;;29.03;37.01;102459.50;5057845;28;20129;-74
2023/06/24 02:56:52;;;;;;;5.63;3.10;;;;;;;28.78;37.11;102460.16;5057936;28;20399;-75
2023/06/24 02:59:22;;;;;;;8.15;3.40;;;;;;;28.83;36.77;102460.75;5074621;28;20126;-76
2023/06/24 03:01:47;;;;;;;4.47;2.75;;;;;;;28.80;37.71;102454.69;5074568;28;20025;-77
2023/06/24 03:04:13;;;;;;;4.65;2.70;;;;;;;28.60;38.38;102460.34;5074362;28;20024;-76
2023/06/24 03:06:39;;;;;;;5.90;3.28;;;;;;;28.84;37.05;102453.53;5066854;28;20044;-76
2023/06/24 03:09:07;;;;;;;5.00;3.17;;;;;;;29.10;36.53;102451.91;5088790;28;20035;-76
2023/06/24 03:11:40;;;;;;;4.72;3.33;;;;;;;28.24;37.69;102456.19;5068409;28;20127;-74
2023/06/24 03:14:05;;;;;;;5.13;2.88;;;;;;;28.52;37.18;102453.66;5078862;28;20032;-76
2023/06/24 03:16:31;;;;;;;6.35;3.20;;;;;;;28.60;37.74;102456.75;5071755;28;20042;-75
2023/06/24 03:18:56;;;;;;;3.92;2.80;;;;;;;28.25;38.17;102452.56;5076716;28;20110;-76
2023/06/24 03:21:28;;;;;;;6.72;3.33;;;;;;;28.71;37.44;102448.91;5066531;28;20055;-77
2023/06/24 03:23:58;;;;;;;4.80;2.87;;;;;;;28.79;37.05;102452.97;5068020;28;20084;-75
2023/06/24 03:26:25;;;;;;;6.30;2.92;;;;;;;28.58;37.70;102456.00;5059414;28;20020;-76
2023/06/24 03:28:50;;;;;;;6.05;3.00;;;;;;;28.67;37.50;102451.91;5083511;28;20457;-76
2023/06/24 03:31:16;;;;;;;4.75;3.20;;;;;;;28.87;37.49;102459.59;5069729;28;20031;-75
2023/06/24 03:33:44;;;;;;;5.78;3.40;;;;;;;28.75;37.27;102460.38;5089554;28;20033;-76
2023/06/24 03:36:10;;;;;;;6.68;2.97;;;;;;;28.22;38.45;102463.50;5055590;28;20028;-75
2023/06/24 03:38:35;;;;;;;7.68;3.88;;;;;;;28.69;37.73;102455.38;5056071;28;20387;-75
2023/06/24 03:41:01;;;;;;;6.82;3.00;;;;;;;28.67;38.17;102459.97;5087445;28;20037;-76
2023/06/24 03:43:26;;;;;;;6.00;3.15;;;;;;;28.44;38.55;102462.22;5057805;28;20024;-77
2023/06/24 03:45:52;;;;;;;6.88;3.58;;;;;;;28.93;37.43;102470.00;5074921;28;20055;-77
2023/06/24 03:48:17;;;;;;;4.80;3.25;;;;;;;28.81;38.06;102470.75;5072197;28;20488;-76
2023/06/24 03:50:42;;;;;;;5.32;2.90;;;;;;;28.72;37.78;102465.94;5063845;28;20029;-76
2023/06/24 03:53:09;;;;;;;6.57;3.42;;;;;;;28.59;37.87;102461.28;5073708;28;20035;-77
2023/06/24 03:55:37;;;;;;;4.95;3.20;;;;;;;28.84;37.75;102461.59;5071377;28;20109;-76
2023/06/24 03:58:03;;;;;;;4.28;3.17;;;;;;;28.90;37.71;102464.78;5084511;28;20087;-77
2023/06/24 04:00:28;;;;;;;4.30;3.13;;;;;;;28.76;38.02;102462.94;5056637;28;20119;-76
2023/06/24 04:02:54;;;;;;;4.07;2.67;;;;;;;28.74;38.50;102464.88;5055970;28;20029;-76
2023/06/24 04:05:21;;;;;;;5.32;2.97;;;;;;;28.80;38.06;102463.63;5079028;28;20036;-76
2023/06/24 04:07:46;;;;;;;4.60;3.33;;;;;;;28.88;38.22;102464.03;5054705;28;20540;-77
2023/06/24 04:10:13;;;;;;;6.15;3.78;;;;;;;29.04;37.53;102468.44;5055143;28;20115;-76
2023/06/24 04:12:38;;;;;;;5.63;3.60;;;;;;;28.89;38.19;102468.47;5082601;28;20031;-76
2023/06/24 04:15:04;;;;;;;7.15;3.00;;;;;;;28.52;39.25;102464.44;5074044;28;20028;-77
2023/06/24 04:17:30;;;;;;;5.15;3.20;;;;;;;28.88;38.23;102461.34;5066518;28;20033;-77
2023/06/24 04:19:56;;;;;;;9.55;3.83;;;;;;;28.91;38.07;102466.53;5091583;28;20028;-77
2023/06/24 04:22:21;;;;;;;4.90;3.17;;;;;;;28.91;38.18;102466.53;5072550;28;20028;-76
2023/06/24 04:24:46;;;;;;;5.75;3.08;;;;;;;28.65;39.08;102469.97;5063493;28;20387;-76
2023/06/24 04:27:12;;;;;;;4.88;3.53;;;;;;;28.67;38.68;102479.66;5078643;28;20107;-76
2023/06/24 04:29:37;;;;;;;6.47;3.47;;;;;;;29.14;38.01;102480.38;5064567;28;20384;-76
2023/06/24 04:32:03;;;;;;;5.57;3.30;;;;;;;28.79;38.20;102478.03;5054421;28;20495;-75
2023/06/24 04:34:29;;;;;;;7.82;4.03;;;;;;;28.74;38.08;102481.03;5054858;28;20030;-76
2023/06/24 04:36:54;;;;;;;5.60;3.00;;;;;;;29.09;37.59;102479.78;5054663;28;20024;-77
2023/06/24 04:39:20;;;;;;;5.07;3.10;;;;;;;29.28;37.57;102482.22;5087206;28;20030;-76
2023/06/24 04:41:46;;;;;;;4.45;3.22;;;;;;;29.21;37.93;102473.63;5082286;28;20029;-77
2023/06/24 04:44:12;;;;;;;4.38;3.08;;;;;;;29.51;37.62;102486.13;5071090;28;20028;-77
2023/06/24 04:46:37;;;;;;;6.18;3.50;;;;;;;29.49;37.89;102482.63;5058253;28;20481;-77
2023/06/24 04:49:03;;;;;;;6.18;3.33;;;;;;;30.37;36.27;102484.06;5054973;28;20052;-78
2023/06/24 04:51:28;;;;;;;5.72;3.85;;;;;;;31.27;34.65;102479.56;5064577;28;20189;-77
2023/06/24 04:53:55;;;;;;;6.30;2.70;;;;;;;32.02;33.75;102479.50;5062987;28;20221;-77
2023/06/24 04:56:20;;;;;;;9.30;3.53;;;;;;;32.66;31.95;102481.81;5054393;28;20598;-76
2023/06/24 04:58:46;;;;;;;5.85;2.97;;;;;;;33.44;30.99;102477.41;5075643;28;20054;-77
2023/06/24 05:01:11;;;;;;;3.90;3.00;;;;;;;33.77;30.08;102483.75;5058461;28;20016;-76
2023/06/24 05:03:37;;;;;;;6.47;3.15;;;;;;;33.90;29.75;102480.84;5065773;28;20016;-76
2023/06/24 05:06:02;;;;;;;4.53;2.92;;;;;;;34.24;29.43;102483.41;5072570;28;20070;-76
2023/06/24 05:08:28;;;;;;;4.05;3.00;;;;;;;35.09;28.21;102481.47;5072353;28;20476;-67
2023/06/24 05:10:53;;;;;;;6.03;2.67;;;;;;;35.67;27.01;102485.34;5067074;28;20135;-68
2023/06/24 05:13:18;;;;;;;3.88;2.85;;;;;;;35.30;27.65;102492.25;5058831;28;20028;-67
2023/06/24 05:15:44;;;;;;;7.88;2.88;;;;;;;35.45;26.52;102483.75;5061505;28;20488;-68
2023/06/24 05:18:09;;;;;;;3.80;2.60;;;;;;;35.66;26.82;102495.34;5062329;28;20032;-68
2023/06/24 05:20:37;;;;;;;7.18;2.58;;;;;;;34.21;27.53;102499.94;5068804;28;20024;-67
2023/06/24 05:23:03;;;;;;;3.65;2.53;;;;;;;33.02;29.98;102496.13;5070983;28;20465;-68
2023/06/24 05:25:28;;;;;;;6.72;3.22;;;;;;;33.98;28.19;102489.19;5089502;28;20031;-67
2023/06/24 05:27:54;;;;;;;8.38;2.60;;;;;;;33.94;28.91;102498.56;5069557;28;20028;-67
2023/06/24 05:30:19;;;;;;;3.67;2.58;;;;;;;32.89;30.39;102504.38;5056165;28;20071;-68
2023/06/24 05:32:45;;;;;;;3.63;2.88;;;;;;;32.17;31.20;102500.00;5054731;28;20055;-68
2023/06/24 05:35:10;;;;;;;5.18;2.40;;;;;;;30.29;33.58;102504.34;5082945;28;20396;-68
2023/06/24 05:37:35;;;;;;;7.05;3.17;;;;;;;30.41;34.49;102504.47;5055009;28;20043;-68
2023/06/24 05:40:02;;;;;;;4.18;2.70;;;;;;;31.24;32.73;102506.78;5082351;28;20024;-68
2023/06/24 05:42:27;;;;;;;4.25;2.92;;;;;;;29.32;36.36;102516.06;5066768;28;20028;-68
2023/06/24 05:44:53;;;;;;;6.50;3.60;;;;;;;29.87;35.42;102502.66;5065179;28;20027;-68
2023/06/24 05:47:19;;;;;;;6.72;3.35;;;;;;;29.82;35.32;102504.78;5057439;28;20034;-68
2023/06/24 05:49:44;;;;;;;4.38;3.25;;;;;;;29.72;35.21;102509.94;5050866;28;20123;-68
2023/06/24 05:52:11;;;;;;;5.43;3.42;;;;;;;29.58;36.15;102506.28;5075377;28;20039;-68
2023/06/24 05:54:37;;;;;;;7.72;4.22;;;;;;;29.49;36.23;102506.88;5077634;28;20024;-68
2023/06/24 05:57:05;;;;;;;6.13;3.47;;;;;;;29.26;36.75;102511.94;5068230;28;20062;-68
2023/06/24 05:59:31;;;;;;;6.60;3.80;;;;;;;29.06;37.59;102517.66;5068501;28;20762;-68
2023/06/24 06:01:56;;;;;;;5.72;3.15;;;;;;;29.24;37.20;102505.75;5050017;28;20055;-67
2023/06/24 06:04:22;;;;;;;6.13;3.30;;;;;;;30.99;34.16;102513.03;5051990;28;20427;-67
2023/06/24 06:06:47;;;;;;;7.72;4.15;;;;;;;29.59;36.27;102510.72;5050290;28;20035;-68
2023/06/24 06:09:13;;;;;;;6.93;3.92;;;;;;;29.04;37.25;102509.66;5080021;28;20032;-68
2023/06/24 06:11:38;;;;;;;5.80;3.58;;;;;;;30.38;35.51;102507.38;5064728;28;20027;-67
2023/06/24 06:14:03;;;;;;;5.40;3.70;;;;;;;30.58;34.39;102508.72;5055154;28;20074;-68
2023/06/24 06:16:29;;;;;;;7.57;3.70;;;;;;;33.12;30.85;102517.91;5052634;28;20029;-68
2023/06/24 06:18:54;;;;;;;4.43;3.00;;;;;;;34.26;29.06;102519.38;5050166;28;20465;-68
2023/06/24 06:21:20;;;;;;;5.68;2.85;;;;;;;35.32;27.76;102509.34;5053463;28;20028;-68
2023/06/24 06:23:45;;;;;;;4.15;3.15;;;;;;;36.65;25.96;102505.19;5065639;28;20866;-68
2023/06/24 06:26:10;;;;;;;4.30;2.67;;;;;;;37.85;25.02;102500.75;5056198;28;20024;-68
2023/06/24 06:28:36;;;;;;;4.55;2.95;;;;;;;37.62;24.07;102502.19;5058733;28;20065;-68
2023/06/24 06:31:01;;;;;;;5.47;2.78;;;;;;;37.47;24.13;102504.59;5056437;28;20513;-68
2023/06/24 06:33:26;;;;;;;4.93;3.08;;;;;;;38.74;24.11;102524.50;5070483;28;20020;-67
2023/06/24 06:35:52;;;;;;;3.95;2.97;;;;;;;38.43;23.93;102522.22;5050299;28;20550;-68
2023/06/24 06:38:17;;;;;;;3.83;3.20;;;;;;;37.91;24.78;102528.41;5068009;28;20028;-67
2023/06/24 06:40:43;;;;;;;4.75;3.17;;;;;;;38.33;23.76;102527.78;5067902;28;20023;-68
2023/06/24 06:43:08;;;;;;;6.15;3.50;;;;;;;37.08;24.95;102527.44;5057446;28;20617;-68
2023/06/24 06:45:34;;;;;;;5.32;3.17;;;;;;;38.90;23.92;102519.13;5087840;28;20115;-68
2023/06/24 06:47:59;;;;;;;6.28;3.55;;;;;;;39.91;23.74;102511.91;5070774;28;20123;-68
2023/06/24 06:50:24;;;;;;;5.15;3.25;;;;;;;41.44;20.80;102508.34;5059290;28;20069;-68
2023/06/24 06:52:50;;;;;;;5.82;3.10;;;;;;;39.98;22.63;102517.56;5062826;28;20064;-68
2023/06/24 06:55:15;;;;;;;7.47;2.97;;;;;;;39.95;21.38;102523.38;5052683;28;20035;-68
2023/06/24 06:57:41;;;;;;;5.38;2.83;;;;;;;39.89;22.46;102516.72;5082922;28;20039;-68
2023/06/24 07:00:07;;;;;;;4.38;3.00;;;;;;;39.42;22.57;102518.16;5086110;28;20036;-68
2023/06/24 07:02:32;;;;;;;5.57;3.55;;;;;;;38.44;24.08;102524.78;5069319;28;20028;-68
2023/06/24 07:04:59;;;;;;;4.03;2.55;;;;;;;38.83;23.24;102523.53;5070289;28;20442;-68
2023/06/24 07:07:24;;;;;;;4.05;2.88;;;;;;;39.57;22.67;102521.09;5066689;28;20024;-68
2023/06/24 07:09:51;;;;;;;4.78;3.22;;;;;;;41.06;21.20;102521.03;5079561;28;20552;-67
2023/06/24 07:12:17;;;;;;;4.15;2.70;;;;;;;41.67;21.00;102524.81;5071327;28;20028;-68
2023/06/24 07:14:42;;;;;;;4.97;3.05;;;;;;;41.34;21.26;102519.53;5067572;28;20109;-68
2023/06/24 07:17:08;;;;;;;4.63;3.13;;;;;;;41.45;20.33;102525.63;5071623;28;20036;-68
2023/06/24 07:19:33;;;;;;;5.43;3.63;;;;;;;41.45;20.93;102517.41;5069493;28;20386;-68
2023/06/24 07:21:59;;;;;;;4.93;3.53;;;;;;;39.80;22.35;102520.47;5052002;28;20036;-68
2023/06/24 07:24:24;;;;;;;5.32;2.90;;;;;;;42.33;19.68;102518.81;5064392;28;20103;-68
2023/06/24 07:26:49;;;;;;;4.15;3.08;;;;;;;42.52;19.51;102522.03;5061599;28;20036;-68
2023/06/24 07:29:15;;;;;;;4.75;3.00;;;;;;;43.99;18.56;102523.88;5057503;28;20621;-68
2023/06/24 07:31:40;;;;;;;5.03;2.95;;;;;;;43.02;19.01;102527.81;5062449;28;20028;-67
2023/06/24 07:34:06;;;;;;;6.00;3.15;;;;;;;40.58;21.35;102530.06;5085869;28;20082;-68
2023/06/24 07:36:31;;;;;;;5.45;3.30;;;;;;;41.84;20.83;102521.97;5054200;28;20020;-68
2023/06/24 07:38:57;;;;;;;6.65;3.17;;;;;;;41.54;21.05;102530.03;5053593;28;20512;-68
2023/06/24 07:41:22;;;;;;;3.88;3.08;;;;;;;43.27;19.51;102527.53;5064052;28;20035;-68
2023/06/24 07:43:48;;;;;;;3.63;3.22;;;;;;;43.91;19.29;102526.75;5083050;28;20020;-68
2023/06/24 07:46:13;;;;;;;4.75;3.13;;;;;;;43.24;19.20;102528.78;5092454;28;20089;-68
2023/06/24 07:48:39;;;;;;;7.72;3.30;;;;;;;43.20;18.92;102524.72;5060807;28;20480;-68
2023/06/24 07:51:04;;;;;;;4.38;3.20;;;;;;;42.81;18.94;102534.13;5073344;28;20146;-69
2023/06/24 07:53:29;;;;;;;5.10;3.50;;;;;;;43.48;20.36;102527.59;5060545;28;20028;-68
2023/06/24 07:55:55;;;;;;;3.10;2.80;;;;;;;41.69;19.95;102522.72;5055575;28;20075;-68
2023/06/24 07:58:20;;;;;;;4.65;2.95;;;;;;;43.59;18.71;102531.72;5060599;28;20491;-68
2023/06/24 08:00:46;;;;;;;4.82;2.92;;;;;;;43.44;19.29;102525.41;5057137;28;20032;-68
2023/06/24 08:03:14;;;;;;;2.88;2.53;;;;;;;42.93;19.76;102520.75;5063755;28;20029;-68
2023/06/24 08:05:40;;;;;;;5.00;3.40;;;;;;;42.32;21.05;102522.59;5071020;28;20064;-68
2023/06/24 08:08:06;;;;;;;4.38;3.53;;;;;;;40.18;21.47;102518.13;5058026;28;20432;-68
2023/06/24 08:10:31;;;;;;;4.00;3.30;;;;;;;42.95;20.17;102527.75;5063709;28;20028;-68
2023/06/24 08:12:57;;;;;;;4.20;3.20;;;;;;;42.69;19.49;102529.09;5086242;28;20105;-68
2023/06/24 08:15:22;;;;;;;4.97;3.70;;;;;;;43.54;18.55;102521.31;5071651;28;20035;-68
2023/06/24 08:17:54;;;;;;;7.63;3.40;;;;;;;42.86;20.00;102523.41;5053227;28;20028;-68
2023/06/24 08:20:23;;;;;;;5.88;3.10;;;;;;;42.32;19.33;102517.09;5083423;28;20509;-68
2023/06/24 08:22:49;;;;;;;5.05;3.17;;;;;;;42.63;20.41;102524.34;5064635;28;20027;-68
2023/06/24 08:25:15;;;;;;;5.05;3.22;;;;;;;42.55;19.71;102521.66;5057209;28;20035;-68
2023/06/24 08:27:40;;;;;;;5.60;3.50;;;;;;;42.52;18.89;102520.13;5064682;28;20043;-67
2023/06/24 08:30:06;;;;;;;5.75;3.92;;;;;;;43.00;20.53;102519.78;5076311;28;20496;-68
2023/06/24 08:32:32;;;;;;;5.30;3.30;;;;;;;44.52;18.19;102517.09;5066149;28;20215;-68
2023/06/24 08:34:57;;;;;;;6.95;2.95;;;;;;;40.76;20.90;102521.63;5064246;28;20042;-68
2023/06/24 08:37:23;;;;;;;5.35;2.75;;;;;;;41.37;20.75;102519.19;5065554;28;20460;-68
2023/06/24 08:39:48;;;;;;;4.03;3.03;;;;;;;43.15;18.51;102521.69;5073456;28;20032;-68
2023/06/24 08:42:14;;;;;;;6.60;3.50;;;;;;;43.72;18.58;102523.59;5058289;28;20016;-68
2023/06/24 08:44:39;;;;;;;5.13;3.70;;;;;;;41.78;20.39;102514.44;5082046;28;20028;-68
2023/06/24 08:47:05;;;;;;;5.05;3.95;;;;;;;42.64;19.52;102526.06;5072283;28;20103;-68
2023/06/24 08:49:32;;;;;;;7.00;3.72;;;;;;;41.29;20.89;102519.19;5066287;28;20062;-68
2023/06/24 08:52:09;;;;;;;5.60;3.60;;;;;;;42.49;20.10;102523.28;5081152;28;20471;-68
2023/06/24 08:54:36;;;;;;;5.63;3.10;;;;;;;42.50;19.69;102510.41;5064918;28;20035;-68
2023/06/24 08:57:06;;;;;;;4.07;3.33;;;;;;;42.14;19.66;102519.31;5054749;28;20647;-68
2023/06/24 08:59:38;;;;;;;5.22;3.20;;;;;;;42.99;19.58;102518.09;5051438;28;20025;-68
2023/06/24 09:02:03;;;;;;;4.80;3.00;;;;;;;44.26;18.14;102513.06;5045013;28;20070;-68
2023/06/24 09:04:29;;;;;;;4.32;3.03;;;;;;;43.61;18.03;102521.38;5055390;28;20449;-68
2023/06/24 09:06:54;;;;;;;4.88;3.58;;;;;;;43.83;18.85;102521.34;5031245;28;20475;-70
2023/06/24 09:09:21;;;;;;;4.18;3.58;;;;;;;43.21;18.83;102520.91;5042592;28;20036;-68
2023/06/24 09:11:54;;;;;;;8.40;3.83;;;;;;;43.79;19.13;102506.28;5035928;28;20029;-68
2023/06/24 09:14:19;;;;;;;4.57;3.95;;;;;;;41.68;20.70;102515.53;5049723;28;20033;-68
2023/06/24 09:17:05;;;;;;;4.90;4.20;;;;;;;43.90;19.27;102508.56;5034706;28;20043;-68
2023/06/24 09:19:36;;;;;;;5.50;3.83;;;;;;;43.11;19.39;102517.63;5056895;28;20187;-68
2023/06/24 09:22:03;;;;;;;3.80;3.40;;;;;;;44.99;18.08;102515.44;5047064;28;20029;-65
2023/06/24 09:24:37;;;;;;;8.38;5.18;;;;;;;41.99;20.68;102509.16;5037558;28;20017;-68
2023/06/24 09:27:03;;;;;;;4.80;3.47;;;;;;;43.83;19.06;102513.09;5031343;28;20396;-67
2023/06/24 09:29:34;;;;;;;6.30;3.70;;;;;;;45.21;18.15;102509.81;5057969;28;20537;-68
2023/06/24 09:32:03;;;;;;;6.07;4.20;;;;;;;43.92;18.70;102511.94;5035072;28;20025;-67
2023/06/24 09:34:29;;;;;;;4.20;3.30;;;;;;;45.17;17.49;102511.28;5051404;28;20029;-68
2023/06/24 09:36:57;;;;;;;4.03;3.33;;;;;;;44.67;17.74;102501.28;5052892;28;20044;-68
2023/06/24 09:39:29;;;;;;;5.47;3.85;;;;;;;42.45;19.64;102507.38;5058476;28;20066;-68
2023/06/24 09:41:59;;;;;;;6.75;4.30;;;;;;;41.94;19.98;102508.00;5033465;28;20294;-68
2023/06/24 09:44:25;;;;;;;5.90;4.47;;;;;;;43.53;20.40;102518.78;5052330;28;20034;-68
2023/06/24 09:46:52;;;;;;;5.80;4.22;;;;;;;44.27;19.16;102503.78;5042403;28;20512;-68
2023/06/24 09:49:17;;;;;;;4.80;4.25;;;;;;;44.60;18.59;102503.16;5032070;28;20043;-68
2023/06/24 09:51:46;;;;;;;6.72;3.58;;;;;;;44.88;18.18;102505.00;5045988;28;20024;-68
2023/06/24 09:54:14;;;;;;;3.92;3.47;;;;;;;46.00;17.82;102497.22;5051777;28;20074;-68
2023/06/24 09:56:44;;;;;;;6.70;4.47;;;;;;;45.77;17.21;102496.75;5044392;28;20489;-68
2023/06/24 09:59:12;;;;;;;4.70;3.35;;;;;;;44.05;19.28;102495.53;5037295;28;20074;-68
2023/06/24 10:01:40;;;;;;;5.53;3.80;;;;;;;42.23;20.30;102495.41;5039232;28;20028;-68
2023/06/24 10:04:07;;;;;;;7.28;3.88;;;;;;;42.30;19.86;102497.19;5038367;28;20041;-68
2023/06/24 10:06:33;;;;;;;4.50;3.25;;;;;;;42.02;21.15;102503.28;5034197;28;20035;-68
2023/06/24 10:09:00;;;;;;;3.67;3.38;;;;;;;42.31;20.81;102492.59;5029920;28;20127;-68
2023/06/24 10:11:26;;;;;;;4.13;2.85;;;;;;;42.02;20.25;102488.72;5037134;28;20052;-68
2023/06/24 10:13:52;;;;;;;3.70;2.83;;;;;;;43.53;18.94;102492.09;5050854;28;20068;-68
2023/06/24 10:16:18;;;;;;;6.78;3.70;;;;;;;41.47;20.90;102479.69;5044617;28;20025;-68
2023/06/24 10:18:44;;;;;;;5.65;3.28;;;;;;;41.85;20.35;102488.00;5035141;28;20405;-68
2023/06/24 10:21:10;;;;;;;4.68;3.47;;;;;;;42.59;19.15;102484.53;5034517;28;20114;-68
2023/06/24 10:23:41;;;;;;;6.50;4.53;;;;;;;40.21;22.39;102495.84;5038150;28;20477;-68
2023/06/24 10:26:28;;;;;;;6.22;3.47;;;;;;;40.74;21.88;102487.19;5034528;28;20044;-67
2023/06/24 10:29:05;;;;;;;4.57;3.60;;;;;;;43.08;19.72;102485.00;5066730;28;20029;-68
2023/06/24 10:31:39;;;;;;;3.80;2.97;;;;;;;43.17;20.63;102481.06;5045454;28;20472;-68
2023/06/24 10:34:20;;;;;;;6.97;3.60;;;;;;;40.50;22.16;102478.03;5031983;28;20037;-68
2023/06/24 10:37:01;;;;;;;5.43;3.63;;;;;;;40.32;22.75;102476.31;5034537;28;20029;-68
2023/06/24 10:39:49;;;;;;;5.32;3.80;;;;;;;42.50;20.89;102480.19;5044980;28;20028;-68
2023/06/24 10:42:43;;;;;;;6.80;3.70;;;;;;;42.05;20.22;102483.69;5046414;28;20485;-68
2023/06/24 10:45:09;;;;;;;4.78;3.17;;;;;;;42.63;20.06;102472.13;5048712;28;20056;-68
2023/06/24 10:47:39;;;;;;;7.30;4.20;;;;;;;42.91;19.30;102476.97;5036136;28;20170;-68
2023/06/24 10:50:05;;;;;;;4.53;3.45;;;;;;;42.94;20.29;102471.06;5048664;28;20111;-68
2023/06/24 10:52:31;;;;;;;4.03;3.38;;;;;;;43.03;20.15;102469.91;5053432;28;20110;-68
2023/06/24 10:54:58;;;;;;;4.28;3.60;;;;;;;42.21;20.99;102465.41;5030396;28;20449;-68
2023/06/24 10:57:25;;;;;;;6.68;4.03;;;;;;;41.67;21.04;102466.31;5042105;28;20036;-68
2023/06/24 10:59:53;;;;;;;6.28;3.38;;;;;;;43.43;19.97;102468.66;5046113;28;20040;-68
2023/06/24 11:02:20;;;;;;;6.25;3.47;;;;;;;41.06;21.04;102466.22;5058268;28;20025;-68
2023/06/24 11:04:57;;;;;;;6.25;3.90;;;;;;;42.23;20.11;102456.97;5066612;28;20044;-68
2023/06/24 11:07:28;;;;;;;5.47;3.95;;;;;;;42.63;19.19;102458.41;5054946;28;20025;-68
2023/06/24 11:10:05;;;;;;;4.38;3.05;;;;;;;42.22;20.00;102461.59;5042558;28;20064;-67
2023/06/24 11:12:36;;;;;;;4.15;2.90;;;;;;;42.66;18.65;102460.78;5040536;28;20028;-68
2023/06/24 11:15:03;;;;;;;4.38;3.28;;;;;;;42.53;18.79;102453.16;5038706;28;20048;-67
2023/06/24 11:17:29;;;;;;;6.25;3.60;;;;;;;42.84;19.71;102456.75;5040095;28;20108;-67
2023/06/24 11:19:56;;;;;;;4.55;3.38;;;;;;;43.10;19.01;102447.16;5047603;28;20120;-68
2023/06/24 11:22:22;;;;;;;5.15;4.00;;;;;;;41.06;20.81;102449.75;5071685;28;20032;-67
2023/06/24 11:24:48;;;;;;;5.60;4.10;;;;;;;38.28;22.36;102460.03;5054051;28;20543;-67